Time;durP1;ratioP1;P1;durP2;ratioP2;P2;SDS_P1;SDS_P2;PMS_P1;PMS_P2;Temp;Humidity;BMP_temperature;BMP_pressure;BME280_temperature;BME280_humidity;BME280_pressure;Samples;Min_cycle;Max_cycle;Signal;HPM_P1;HPM_P2
2024/02/02 00:01:26;;;;;;;25.90;10.00;;;;;;;9.29;93.65;102988.97;5008047;28;20061;-60
2024/02/02 00:03:54;;;;;;;24.48;11.00;;;;;;;9.16;94.63;102982.94;5008603;28;20100;-61
2024/02/02 00:06:21;;;;;;;21.58;10.68;;;;;;;9.37;94.55;102988.56;5009044;28;20054;-61
2024/02/02 00:08:49;;;;;;;23.33;10.88;;;;;;;9.47;93.76;102974.09;5012497;28;20046;-61
2024/02/02 00:11:16;;;;;;;22.60;11.68;;;;;;;9.63;92.85;102974.09;5007026;28;20045;-61
2024/02/02 00:13:44;;;;;;;25.35;11.23;;;;;;;9.56;92.63;102978.94;5038933;28;20060;-63
2024/02/02 00:16:11;;;;;;;21.48;10.52;;;;;;;9.49;92.89;102980.19;5024088;28;20057;-62
2024/02/02 00:18:38;;;;;;;22.77;10.63;;;;;;;9.52;92.85;102977.78;5008129;28;20125;-61
2024/02/02 00:21:06;;;;;;;21.95;11.05;;;;;;;9.41;92.83;102977.88;5040191;28;20899;-61
2024/02/02 00:23:34;;;;;;;26.40;10.75;;;;;;;9.33;93.40;102978.31;5039975;28;20061;-61
2024/02/02 00:26:01;;;;;;;22.95;10.02;;;;;;;9.31;93.15;102988.72;4990720;28;20069;-62
2024/02/02 00:28:28;;;;;;;20.02;10.25;;;;;;;8.97;93.90;102980.44;5006620;28;20872;-61
2024/02/02 00:31:29;;;;;;;25.02;10.23;;;;;;;9.04;94.78;102981.13;4994262;28;20057;-64
2024/02/02 00:37:17;;;;;;;22.45;10.02;;;;;;;8.97;94.93;102974.09;5010686;28;20065;-63
2024/02/02 00:40:01;;;;;;;18.33;10.40;;;;;;;8.94;96.11;102980.91;4996472;28;20077;-62
2024/02/02 00:42:38;;;;;;;23.38;11.45;;;;;;;8.99;95.21;102991.19;5009006;28;20054;-62
2024/02/02 00:45:05;;;;;;;19.75;10.45;;;;;;;8.89;95.96;102983.56;5009048;28;20058;-63
2024/02/02 00:47:33;;;;;;;20.73;10.73;;;;;;;8.94;95.93;102989.16;5019414;28;20068;-62
2024/02/02 00:50:00;;;;;;;22.95;10.18;;;;;;;9.13;95.90;102987.84;5005604;28;20591;-64
2024/02/02 00:52:28;;;;;;;22.38;11.38;;;;;;;9.09;95.16;102989.47;5024506;28;20058;-64
2024/02/02 00:54:56;;;;;;;20.85;11.38;;;;;;;8.76;96.22;102986.66;5024153;28;20054;-65
2024/02/02 00:57:35;;;;;;;21.83;11.90;;;;;;;8.74;97.82;102971.47;5008374;28;20046;-66
2024/02/02 01:00:05;;;;;;;19.83;11.45;;;;;;;8.72;98.67;102968.97;5010239;28;20057;-65
2024/02/02 01:02:42;;;;;;;28.10;12.80;;;;;;;8.73;98.75;102962.41;5008968;28;20110;-65
2024/02/02 01:05:10;;;;;;;26.40;13.10;;;;;;;8.77;99.43;102949.03;5003559;28;20053;-65
2024/02/02 01:07:38;;;;;;;25.90;13.43;;;;;;;8.70;99.73;102953.84;5005141;28;20061;-62
2024/02/02 01:10:12;;;;;;;25.95;13.27;;;;;;;8.73;99.70;102954.19;4989083;28;20069;-63
2024/02/02 01:12:43;;;;;;;24.92;13.70;;;;;;;8.56;99.72;102960.72;4995675;28;20504;-64
2024/02/02 01:15:14;;;;;;;24.33;14.38;;;;;;;8.44;100.00;102966.22;5007329;28;20054;-63
2024/02/02 01:17:45;;;;;;;23.52;14.35;;;;;;;8.33;100.00;102969.03;5009794;28;20049;-64
2024/02/02 01:20:14;;;;;;;25.75;14.93;;;;;;;8.41;100.00;102961.22;5009100;28;20053;-64
2024/02/02 01:22:44;;;;;;;24.38;15.15;;;;;;;8.29;100.00;102968.69;5007036;28;20058;-63
2024/02/02 01:25:13;;;;;;;23.85;15.43;;;;;;;7.96;100.00;102963.00;5008330;28;20065;-62
2024/02/02 01:27:41;;;;;;;25.65;15.43;;;;;;;8.15;100.00;102963.66;5007031;28;20077;-64
2024/02/02 01:30:11;;;;;;;28.85;16.63;;;;;;;8.28;100.00;102966.19;5006977;28;20054;-63
2024/02/02 01:32:39;;;;;;;26.40;16.77;;;;;;;8.22;100.00;102969.84;5007242;28;20744;-64
2024/02/02 01:35:07;;;;;;;30.17;16.73;;;;;;;8.28;100.00;102960.69;5007667;28;20572;-62
2024/02/02 01:37:35;;;;;;;29.60;17.05;;;;;;;8.30;100.00;102969.53;5006953;28;20058;-63
2024/02/02 01:40:02;;;;;;;25.40;16.17;;;;;;;8.14;100.00;102967.50;5006628;28;20046;-62
2024/02/02 01:42:30;;;;;;;27.52;16.85;;;;;;;8.21;100.00;102963.53;5007499;28;20081;-61
2024/02/02 01:44:57;;;;;;;29.02;18.10;;;;;;;7.85;100.00;102970.19;5005958;28;20056;-63
2024/02/02 01:47:24;;;;;;;28.83;17.23;;;;;;;8.10;100.00;102969.06;5006619;28;20218;-63
2024/02/02 01:49:52;;;;;;;25.85;17.38;;;;;;;7.96;100.00;102963.00;5005578;28;20442;-63
2024/02/02 01:52:19;;;;;;;31.63;17.52;;;;;;;8.06;100.00;102967.84;5005574;28;20058;-63
2024/02/02 01:54:47;;;;;;;30.30;17.95;;;;;;;8.13;100.00;102968.56;5004035;28;20062;-64
2024/02/02 01:57:14;;;;;;;32.20;18.15;;;;;;;8.39;100.00;102968.03;5006656;28;20054;-63
2024/02/02 01:59:41;;;;;;;28.60;17.38;;;;;;;8.46;100.00;102971.47;5037401;28;20065;-63
2024/02/02 02:02:09;;;;;;;26.80;17.48;;;;;;;8.44;100.00;102971.72;5006220;28;20187;-63
2024/02/02 02:04:36;;;;;;;30.67;17.45;;;;;;;8.40;100.00;102976.06;4987278;28;20050;-64
2024/02/02 02:07:04;;;;;;;33.03;19.02;;;;;;;8.49;100.00;102973.75;5006757;28;20062;-63
2024/02/02 02:09:31;;;;;;;31.77;18.98;;;;;;;8.26;100.00;102974.66;5019525;28;20046;-63
2024/02/02 02:11:59;;;;;;;31.67;19.50;;;;;;;8.26;100.00;102979.31;5029456;28;20442;-62
2024/02/02 02:14:26;;;;;;;31.92;19.50;;;;;;;8.19;100.00;102973.94;5022436;28;20691;-63
2024/02/02 02:16:54;;;;;;;32.85;19.60;;;;;;;8.09;100.00;102983.88;4988906;28;20060;-63
2024/02/02 02:19:21;;;;;;;34.30;20.27;;;;;;;8.14;100.00;102975.72;5006520;28;20053;-64
2024/02/02 02:21:50;;;;;;;31.85;20.45;;;;;;;8.18;100.00;102979.63;5006513;28;20093;-63
2024/02/02 02:24:17;;;;;;;35.72;20.85;;;;;;;8.17;100.00;102976.09;5005269;28;20060;-63
2024/02/02 02:26:45;;;;;;;33.22;18.23;;;;;;;8.13;100.00;102974.88;5008866;28;20046;-63
2024/02/02 02:29:12;;;;;;;32.42;19.38;;;;;;;8.19;100.00;102967.59;5042187;28;20054;-63
2024/02/02 02:31:40;;;;;;;28.83;18.83;;;;;;;8.17;100.00;102962.34;5010562;28;20782;-62
2024/02/02 02:34:08;;;;;;;31.95;19.42;;;;;;;8.14;100.00;102964.75;5010213;28;20061;-63
2024/02/02 02:36:35;;;;;;;32.40;19.92;;;;;;;8.13;100.00;102968.56;5025083;28;20052;-63
2024/02/02 02:39:05;;;;;;;31.13;18.08;;;;;;;8.24;100.00;102968.56;5010327;28;20049;-63
2024/02/02 02:41:33;;;;;;;29.75;19.40;;;;;;;8.28;100.00;102960.69;5010501;28;20050;-63
2024/02/02 02:44:00;;;;;;;32.63;19.50;;;;;;;8.21;100.00;102968.19;5025118;28;20060;-64
2024/02/02 02:46:28;;;;;;;28.80;18.38;;;;;;;8.19;100.00;102965.69;5041348;28;20061;-63
2024/02/02 02:48:55;;;;;;;28.27;17.70;;;;;;;8.02;100.00;102955.72;5010026;28;20046;-63
2024/02/02 02:51:23;;;;;;;29.55;17.33;;;;;;;8.05;100.00;102960.72;5008685;28;20061;-64
2024/02/02 02:53:50;;;;;;;26.83;17.40;;;;;;;8.13;100.00;102955.69;5041551;28;20054;-64
2024/02/02 02:56:17;;;;;;;30.23;17.23;;;;;;;8.44;100.00;102948.94;5037847;28;20085;-63
2024/02/02 02:58:45;;;;;;;25.70;17.65;;;;;;;8.35;100.00;102942.97;5009857;28;20491;-63
2024/02/02 03:01:12;;;;;;;28.63;16.80;;;;;;;8.31;100.00;102939.06;5025397;28;20066;-62
2024/02/02 03:03:39;;;;;;;25.13;16.65;;;;;;;8.17;100.00;102921.19;5010506;28;20049;-63
2024/02/02 03:06:07;;;;;;;27.08;16.10;;;;;;;8.16;100.00;102924.19;5008753;28;20050;-63
2024/02/02 03:08:34;;;;;;;27.67;16.85;;;;;;;8.13;100.00;102941.09;5023439;28;20057;-64
2024/02/02 03:11:04;;;;;;;28.23;16.63;;;;;;;7.99;100.00;102940.56;5009843;28;20050;-64
2024/02/02 03:13:32;;;;;;;33.20;16.92;;;;;;;8.01;100.00;102930.19;4990254;28;20054;-64
2024/02/02 03:15:59;;;;;;;30.23;16.52;;;;;;;7.97;100.00;102923.50;5007825;28;20053;-63
2024/02/02 03:18:26;;;;;;;28.33;17.42;;;;;;;7.80;100.00;102930.81;5009056;28;20073;-62
2024/02/02 03:20:54;;;;;;;28.13;16.95;;;;;;;7.90;100.00;102942.00;5008161;28;20061;-63
2024/02/02 03:23:24;;;;;;;26.75;17.10;;;;;;;7.88;100.00;102931.28;5007999;28;20054;-63
2024/02/02 03:25:51;;;;;;;;;;;;;;;7.95;100.00;102931.13;5009674;28;20054;-62
2024/02/02 03:28:18;;;;;;;26.45;17.02;;;;;;;7.74;100.00;102935.34;5009258;28;20249;-63
2024/02/02 03:30:46;;;;;;;33.83;17.67;;;;;;;7.81;100.00;102929.75;4991482;28;20069;-63
2024/02/02 03:33:18;;;;;;;31.95;16.77;;;;;;;7.76;100.00;102924.13;5008224;28;20860;-63
2024/02/02 03:35:46;;;;;;;30.95;16.85;;;;;;;7.77;100.00;102925.81;5010275;28;20159;-63
2024/02/02 03:38:15;;;;;;;29.85;16.60;;;;;;;7.66;100.00;102922.00;5007823;28;20734;-63
2024/02/02 03:40:42;;;;;;;28.40;16.55;;;;;;;7.86;100.00;102924.38;5009699;28;20053;-62
2024/02/02 03:43:12;;;;;;;24.55;16.17;;;;;;;7.85;100.00;102912.56;5007940;28;20041;-63
2024/02/02 03:45:40;;;;;;;27.35;16.10;;;;;;;7.85;100.00;102918.03;5009695;28;20058;-62
2024/02/02 03:48:07;;;;;;;24.67;15.05;;;;;;;7.87;100.00;102924.13;5013026;28;20566;-62
2024/02/02 03:50:35;;;;;;;27.52;15.68;;;;;;;7.62;100.00;102925.47;5017140;28;20058;-64
2024/02/02 03:53:02;;;;;;;27.48;14.05;;;;;;;7.48;100.00;102926.81;5009287;28;20682;-63
2024/02/02 03:55:30;;;;;;;25.58;13.95;;;;;;;7.68;100.00;102916.28;5020257;28;20072;-63
2024/02/02 03:57:57;;;;;;;25.33;14.95;;;;;;;7.64;100.00;102923.31;4988676;28;20062;-64
2024/02/02 04:00:24;;;;;;;25.55;14.40;;;;;;;7.66;100.00;102924.75;5002831;28;20061;-63
2024/02/02 04:02:52;;;;;;;26.98;13.75;;;;;;;7.65;100.00;102923.06;5009438;28;20057;-63
2024/02/02 04:05:20;;;;;;;24.25;13.88;;;;;;;7.47;100.00;102916.91;5008574;28;20064;-62
2024/02/02 04:07:48;;;;;;;26.38;15.10;;;;;;;7.52;100.00;102914.25;5038542;28;20062;-66
2024/02/02 04:10:16;;;;;;;27.13;13.82;;;;;;;7.93;100.00;102916.84;5041434;28;20045;-63
2024/02/02 04:12:43;;;;;;;22.77;13.82;;;;;;;7.79;97.96;102916.25;5015054;28;20058;-63
2024/02/02 04:15:11;;;;;;;27.55;13.90;;;;;;;7.40;98.82;102933.47;5008715;28;20054;-63
2024/02/02 04:17:39;;;;;;;25.08;14.35;;;;;;;7.20;100.00;102926.69;5008420;28;20069;-63
2024/02/02 04:20:07;;;;;;;22.58;13.90;;;;;;;7.23;100.00;102927.03;5008329;28;20052;-64
2024/02/02 04:22:35;;;;;;;23.48;13.82;;;;;;;7.26;100.00;102906.53;5009467;28;20053;-63
2024/02/02 04:25:02;;;;;;;21.25;13.40;;;;;;;7.61;100.00;102893.63;5006877;28;20073;-63
2024/02/02 04:27:30;;;;;;;26.20;12.68;;;;;;;7.38;99.94;102889.00;5008829;28;20482;-65
2024/02/02 04:29:58;;;;;;;24.25;12.38;;;;;;;7.32;99.59;102906.41;5008213;28;20050;-63
2024/02/02 04:32:26;;;;;;;19.23;11.50;;;;;;;7.48;98.68;102899.38;4991350;28;20065;-63
2024/02/02 04:34:53;;;;;;;22.70;11.73;;;;;;;7.14;98.16;102912.00;5008397;28;20076;-62
2024/02/02 04:37:20;;;;;;;21.88;11.48;;;;;;;7.07;98.67;102907.72;5008271;28;20060;-63
2024/02/02 04:39:58;;;;;;;24.10;11.27;;;;;;;7.00;99.51;102910.56;5010133;28;20541;-66
2024/02/02 04:43:27;;;;;;;21.75;11.70;;;;;;;7.22;99.07;102919.06;4983957;28;20060;-62
2024/02/02 04:45:54;;;;;;;21.52;11.25;;;;;;;7.27;98.88;102924.66;5008368;28;20950;-63
2024/02/02 04:48:21;;;;;;;21.52;10.77;;;;;;;7.30;98.23;102929.66;5007519;28;20506;-63
2024/02/02 04:50:49;;;;;;;21.88;10.15;;;;;;;7.31;97.15;102918.44;5007498;28;20045;-62
2024/02/02 04:53:16;;;;;;;20.33;9.52;;;;;;;7.32;97.08;102914.63;5006271;28;20072;-63
2024/02/02 04:55:43;;;;;;;14.50;8.52;;;;;;;7.32;96.23;102924.78;5005326;28;20058;-63
2024/02/02 04:58:11;;;;;;;19.80;8.30;;;;;;;7.15;96.62;102926.56;5007993;28;20053;-63
2024/02/02 05:00:39;;;;;;;19.33;9.05;;;;;;;7.11;96.97;102931.69;5007742;28;20049;-63
2024/02/02 05:03:07;;;;;;;13.02;7.13;;;;;;;7.16;96.34;102933.69;5005210;28;20650;-63
2024/02/02 05:05:34;;;;;;;17.33;7.78;;;;;;;7.08;96.07;102934.88;5007721;28;20050;-62
2024/02/02 05:08:02;;;;;;;14.48;7.40;;;;;;;7.34;95.69;102933.59;5007688;28;20054;-64
2024/02/02 05:10:30;;;;;;;14.80;6.75;;;;;;;7.17;95.41;102930.72;5007369;28;20049;-63
2024/02/02 05:12:57;;;;;;;14.02;5.90;;;;;;;7.17;95.98;102925.25;5007784;28;20058;-63
2024/02/02 05:15:24;;;;;;;15.60;6.50;;;;;;;7.08;96.30;102925.84;5038529;28;20058;-63
2024/02/02 05:17:52;;;;;;;16.40;6.65;;;;;;;6.83;97.88;102935.06;5038531;28;20056;-63
2024/02/02 05:20:19;;;;;;;14.18;6.13;;;;;;;7.12;98.07;102932.50;5038642;28;20782;-63
2024/02/02 05:22:46;;;;;;;10.63;6.13;;;;;;;7.27;96.01;102941.09;5007523;28;20061;-63
2024/02/02 05:25:14;;;;;;;12.90;6.45;;;;;;;7.14;96.30;102946.81;5007916;28;20054;-65
2024/02/02 05:27:41;;;;;;;12.95;6.10;;;;;;;7.42;95.32;102956.00;5006720;28;20058;-63
2024/02/02 05:30:09;;;;;;;14.70;6.40;;;;;;;7.23;95.69;102959.09;5005896;28;20729;-64
2024/02/02 05:32:36;;;;;;;13.68;6.50;;;;;;;7.34;95.29;102958.28;5007261;28;20053;-61
2024/02/02 05:35:04;;;;;;;14.80;6.57;;;;;;;7.03;96.34;102966.78;5006881;28;20053;-61
2024/02/02 05:37:33;;;;;;;12.30;5.93;;;;;;;6.92;96.47;102962.97;5007054;28;20507;-61
2024/02/02 05:40:00;;;;;;;14.13;6.88;;;;;;;6.83;98.07;102956.97;5007763;28;20057;-62
2024/02/02 05:42:28;;;;;;;12.70;6.50;;;;;;;6.76;98.32;102953.50;5006995;28;20720;-62
2024/02/02 05:44:55;;;;;;;14.50;6.78;;;;;;;6.93;98.58;102947.34;5006208;28;20065;-60
2024/02/02 05:47:22;;;;;;;15.68;6.90;;;;;;;6.98;98.23;102953.81;5006777;28;20053;-61
2024/02/02 05:49:49;;;;;;;14.45;6.97;;;;;;;7.08;97.48;102958.72;5006765;28;20053;-62
2024/02/02 05:52:17;;;;;;;16.38;6.45;;;;;;;7.22;97.03;102951.94;5021581;28;20485;-62
2024/02/02 05:54:44;;;;;;;11.18;5.53;;;;;;;7.32;95.91;102949.44;5006424;28;20058;-62
2024/02/02 05:57:11;;;;;;;17.27;6.65;;;;;;;7.10;96.09;102951.91;5038101;28;20065;-62
2024/02/02 05:59:39;;;;;;;14.35;6.03;;;;;;;7.19;96.87;102949.66;5037373;28;20062;-62
2024/02/02 06:02:06;;;;;;;12.15;5.78;;;;;;;7.12;96.63;102954.41;5037908;28;20046;-62
2024/02/02 06:04:33;;;;;;;20.15;6.60;;;;;;;7.10;97.20;102951.91;5037712;28;20062;-61
2024/02/02 06:07:01;;;;;;;15.15;6.35;;;;;;;7.09;97.98;102952.16;5006878;28;20057;-62
2024/02/02 06:09:29;;;;;;;13.85;5.88;;;;;;;7.25;97.51;102944.09;5006616;28;20050;-62
2024/02/02 06:11:57;;;;;;;14.82;6.85;;;;;;;6.92;98.74;102941.06;5007229;28;20054;-61
2024/02/02 06:14:25;;;;;;;17.27;6.68;;;;;;;6.77;98.61;102943.38;5006754;28;20050;-61
2024/02/02 06:16:53;;;;;;;17.25;7.28;;;;;;;6.53;99.61;102944.38;5007106;28;20716;-61
2024/02/02 06:19:20;;;;;;;15.70;7.30;;;;;;;6.56;100.00;102957.59;5006922;28;20049;-61
2024/02/02 06:21:48;;;;;;;15.65;7.20;;;;;;;6.48;100.00;102953.31;5022951;28;20053;-62
2024/02/02 06:24:15;;;;;;;14.20;8.00;;;;;;;6.47;100.00;102951.63;5025173;28;20054;-62
2024/02/02 06:26:43;;;;;;;13.32;8.05;;;;;;;6.60;100.00;102961.56;5005654;28;20054;-61
2024/02/02 06:29:10;;;;;;;13.95;7.95;;;;;;;6.50;100.00;102966.75;5003594;28;20076;-61
2024/02/02 06:31:37;;;;;;;15.70;8.65;;;;;;;6.32;100.00;102964.88;5003632;28;20054;-61
2024/02/02 06:34:05;;;;;;;20.85;9.05;;;;;;;6.52;100.00;102965.44;5006135;28;20061;-61
2024/02/02 06:36:32;;;;;;;14.93;8.18;;;;;;;6.57;100.00;102967.50;5005659;28;20069;-61
2024/02/02 06:39:00;;;;;;;16.23;8.88;;;;;;;6.49;100.00;102965.06;5004836;28;20053;-61
2024/02/02 06:41:27;;;;;;;16.88;8.70;;;;;;;6.46;100.00;102965.53;5006463;28;20564;-61
2024/02/02 06:43:54;;;;;;;17.70;9.80;;;;;;;6.31;100.00;102974.16;5006015;28;20046;-63
2024/02/02 06:46:21;;;;;;;14.73;9.43;;;;;;;6.19;100.00;102972.44;5006724;28;20069;-61
2024/02/02 06:48:49;;;;;;;19.73;11.07;;;;;;;6.10;100.00;102966.41;5006321;28;20046;-62
2024/02/02 06:51:16;;;;;;;20.10;10.30;;;;;;;5.87;100.00;102963.56;5018306;28;20053;-64
2024/02/02 06:53:44;;;;;;;18.20;10.35;;;;;;;6.05;100.00;102952.59;5011635;28;20046;-62
2024/02/02 06:56:39;;;;;;;18.70;10.50;;;;;;;6.11;100.00;102950.84;5006474;28;20060;-62
2024/02/02 06:59:07;;;;;;;23.25;11.23;;;;;;;6.06;100.00;102948.81;5021786;28;20049;-62
2024/02/02 07:01:51;;;;;;;19.73;10.93;;;;;;;6.44;100.00;102957.56;5003620;28;20046;-57
2024/02/02 07:04:30;;;;;;;20.75;9.45;;;;;;;6.33;100.00;102958.34;5023183;28;20057;-63
2024/02/02 07:06:58;;;;;;;19.33;10.35;;;;;;;6.41;100.00;102958.03;5029601;28;20480;-62
2024/02/02 07:09:31;;;;;;;18.23;9.77;;;;;;;6.69;100.00;102963.72;5027054;28;20049;-61
2024/02/02 07:12:01;;;;;;;15.02;8.98;;;;;;;6.52;100.00;102965.44;5027029;28;20049;-63
2024/02/02 07:14:50;;;;;;;18.30;10.23;;;;;;;6.54;100.00;102970.69;5051460;28;20057;-62
2024/02/02 07:17:32;;;;;;;21.48;10.70;;;;;;;6.59;100.00;102959.91;5009431;28;20053;-62
2024/02/02 07:20:04;;;;;;;21.55;9.88;;;;;;;6.55;100.00;102964.16;5039029;28;20057;-64
2024/02/02 07:22:38;;;;;;;16.55;10.18;;;;;;;6.39;100.00;102960.16;5013028;28;20053;-62
2024/02/02 07:25:13;;;;;;;17.92;10.63;;;;;;;6.18;100.00;102974.34;5015248;28;20531;-63
2024/02/02 07:28:18;;;;;;;16.30;10.13;;;;;;;6.24;100.00;102972.59;5028488;28;20052;-63
2024/02/02 07:30:47;;;;;;;17.77;10.70;;;;;;;6.09;100.00;102986.66;5021697;28;20152;-61
2024/02/02 07:33:44;;;;;;;17.60;11.07;;;;;;;6.07;100.00;102991.50;5037068;28;20052;-64
2024/02/02 07:36:23;;;;;;;21.73;10.45;;;;;;;6.21;100.00;102990.28;5001293;28;20057;-62
2024/02/02 07:38:53;;;;;;;20.45;11.20;;;;;;;6.16;100.00;102995.59;5022409;28;20481;-62
2024/02/02 07:41:23;;;;;;;;;;;;;;;5.96;100.00;102992.28;5011038;28;20065;-61
2024/02/02 07:43:59;;;;;;;18.70;11.27;;;;;;;5.90;100.00;102987.72;5042872;28;20410;-62
2024/02/02 07:46:27;;;;;;;16.45;9.95;;;;;;;5.95;100.00;102989.75;5027598;28;20069;-63
2024/02/02 07:48:55;;;;;;;16.70;10.05;;;;;;;6.06;100.00;102989.84;5035072;28;20056;-62
2024/02/02 07:51:24;;;;;;;19.90;10.90;;;;;;;5.85;100.00;103001.22;5063665;28;20068;-60
2024/02/02 07:53:52;;;;;;;18.43;9.90;;;;;;;5.99;100.00;102994.56;5040590;28;20087;-61
2024/02/02 07:56:22;;;;;;;19.73;10.95;;;;;;;6.08;100.00;102993.19;5032373;28;20049;-60
2024/02/02 07:58:50;;;;;;;18.23;10.80;;;;;;;6.08;100.00;102995.94;5023980;28;20061;-63
2024/02/02 08:01:19;;;;;;;17.17;10.30;;;;;;;6.84;100.00;102983.31;5040478;28;20037;-60
2024/02/02 08:03:48;;;;;;;17.52;9.98;;;;;;;7.66;100.00;102989.75;5040648;28;20057;-61
2024/02/02 08:06:15;;;;;;;16.08;9.68;;;;;;;7.82;100.00;103000.00;5047673;28;20045;-61
2024/02/02 08:08:47;;;;;;;14.32;9.20;;;;;;;7.05;98.44;102995.63;5042484;28;20068;-61
2024/02/02 08:11:14;;;;;;;14.02;8.63;;;;;;;7.06;98.84;102989.06;5050288;28;20064;-61
2024/02/02 08:13:41;;;;;;;18.75;8.77;;;;;;;6.88;100.00;102989.16;5042161;28;20044;-61
2024/02/02 08:16:09;;;;;;;18.05;9.98;;;;;;;7.02;99.83;102984.31;5040519;28;20057;-61
2024/02/02 08:18:38;;;;;;;18.38;12.43;;;;;;;7.04;99.50;102982.16;5016557;28;20064;-61
2024/02/02 08:21:06;;;;;;;18.83;11.75;;;;;;;7.17;99.42;102987.44;5039147;28;20119;-61
2024/02/02 08:23:35;;;;;;;16.60;10.40;;;;;;;7.16;98.54;102994.84;5033432;28;20049;-60
2024/02/02 08:26:03;;;;;;;16.70;10.32;;;;;;;7.05;99.33;102998.38;5027790;28;20798;-62
2024/02/02 08:28:31;;;;;;;19.42;10.32;;;;;;;7.10;99.36;103003.13;5028723;28;20065;-60
2024/02/02 08:31:14;;;;;;;21.40;11.60;;;;;;;6.98;99.21;103005.00;5048620;28;20076;-61
2024/02/02 08:33:43;;;;;;;17.55;10.93;;;;;;;6.91;100.00;102998.78;5040958;28;20045;-61
2024/02/02 08:36:10;;;;;;;17.83;11.00;;;;;;;7.09;100.00;102994.09;5034633;28;20060;-62
2024/02/02 08:38:39;;;;;;;18.05;10.40;;;;;;;7.48;99.41;102995.34;5040254;28;20053;-61
2024/02/02 08:41:06;;;;;;;14.75;9.27;;;;;;;7.17;98.10;102990.16;5011987;28;20052;-61
2024/02/02 08:43:35;;;;;;;19.30;10.05;;;;;;;7.05;98.91;103001.13;5016499;28;20064;-62
2024/02/02 08:46:22;;;;;;;17.98;10.40;;;;;;;6.99;100.00;102991.06;5007234;28;20049;-62
2024/02/02 08:48:54;;;;;;;17.08;10.77;;;;;;;6.97;99.38;103000.63;5027344;28;20042;-61
2024/02/02 08:51:22;;;;;;;16.40;10.90;;;;;;;7.10;99.63;103000.41;5008821;28;20045;-61
2024/02/02 08:54:07;;;;;;;19.02;10.52;;;;;;;7.43;97.38;103001.53;5026949;28;20428;-61
2024/02/02 08:56:34;;;;;;;16.30;9.77;;;;;;;7.46;94.79;103002.97;5040797;28;20053;-62
2024/02/02 08:59:26;;;;;;;17.92;9.40;;;;;;;6.75;94.58;103006.63;5050840;28;20064;-62
2024/02/02 09:01:54;;;;;;;16.05;9.77;;;;;;;6.48;97.28;103008.06;5046856;28;20053;-62
2024/02/02 09:05:14;;;;;;;15.25;9.38;;;;;;;6.84;97.46;103012.59;5004753;28;20057;-61
2024/02/02 09:07:41;;;;;;;15.45;9.18;;;;;;;7.10;96.35;103008.63;5018712;28;20054;-61
2024/02/02 09:10:43;;;;;;;17.63;9.63;;;;;;;7.17;95.62;103014.84;5032180;28;20061;-62
2024/02/02 09:13:20;;;;;;;17.98;9.77;;;;;;;7.23;93.88;103019.38;5029159;28;20053;-61
2024/02/02 09:15:48;;;;;;;15.77;9.80;;;;;;;7.13;94.65;103021.88;5015018;28;20515;-62
2024/02/02 09:18:39;;;;;;;19.63;11.15;;;;;;;7.19;95.20;103016.28;5042530;28;20068;-61
2024/02/02 09:21:08;;;;;;;14.10;9.35;;;;;;;6.99;93.73;103017.66;5030879;28;20056;-62
2024/02/02 09:23:36;;;;;;;15.02;9.05;;;;;;;7.01;94.28;103012.78;5030849;28;20058;-62
2024/02/02 09:26:15;;;;;;;13.00;8.85;;;;;;;7.05;93.42;103020.28;5025289;28;20275;-61
2024/02/02 09:28:48;;;;;;;17.17;9.60;;;;;;;7.00;93.25;103020.16;5039625;28;20049;-65
2024/02/02 09:31:21;;;;;;;14.13;9.52;;;;;;;7.06;93.31;103016.47;5034566;28;20401;-61
2024/02/02 09:33:53;;;;;;;12.18;8.40;;;;;;;7.21;91.94;103024.25;5037444;28;20058;-63
2024/02/02 09:36:30;;;;;;;15.75;8.27;;;;;;;7.32;91.68;103020.72;5030246;28;20049;-60
2024/02/02 09:39:00;;;;;;;14.40;8.32;;;;;;;7.27;91.36;103023.34;5026369;28;20523;-62
2024/02/02 09:42:28;;;;;;;13.50;9.07;;;;;;;7.09;92.67;103027.00;5027954;28;20040;-61
2024/02/02 09:45:03;;;;;;;13.82;8.75;;;;;;;7.17;92.32;103028.53;5001597;28;20056;-61
2024/02/02 09:48:02;;;;;;;17.50;9.45;;;;;;;7.51;91.55;103033.25;5024155;28;20061;-62
2024/02/02 09:50:59;;;;;;;14.18;9.25;;;;;;;7.62;90.27;103033.25;5029580;28;20044;-61
2024/02/02 09:53:46;;;;;;;12.48;8.02;;;;;;;7.48;90.31;103048.28;5056614;28;20045;-62
2024/02/02 09:56:29;;;;;;;15.32;8.93;;;;;;;7.58;90.74;103044.97;5018958;28;20049;-61
2024/02/02 09:59:20;;;;;;;14.48;8.85;;;;;;;8.08;92.67;103040.66;5014941;28;20523;-63
2024/02/02 10:02:11;;;;;;;14.43;8.82;;;;;;;8.04;89.13;103041.41;5024710;28;20052;-61
2024/02/02 10:05:00;;;;;;;15.05;9.48;;;;;;;8.06;89.14;103033.72;4993545;28;20052;-62
2024/02/02 10:08:06;;;;;;;14.90;9.38;;;;;;;7.53;89.60;103034.69;5001468;28;20087;-63
2024/02/02 10:10:56;;;;;;;14.50;9.88;;;;;;;7.39;91.15;103038.72;4991815;28;20053;-62
2024/02/02 10:14:14;;;;;;;16.42;10.02;;;;;;;7.48;90.90;103039.22;5028455;28;20038;-65
2024/02/02 10:17:14;;;;;;;17.98;10.88;;;;;;;7.79;91.28;103028.72;5040981;28;20076;-63
2024/02/02 10:20:00;;;;;;;14.73;9.50;;;;;;;7.84;90.24;103022.53;4957791;28;20649;-62
2024/02/02 10:22:38;;;;;;;17.17;10.55;;;;;;;7.92;89.33;103022.16;5026670;28;20060;-62
2024/02/02 10:25:37;;;;;;;16.33;10.20;;;;;;;8.22;89.12;103024.75;5010501;28;20073;-63
2024/02/02 10:28:12;;;;;;;16.38;10.77;;;;;;;8.19;88.13;103026.09;5030344;28;20049;-61
2024/02/02 10:31:04;;;;;;;20.27;13.38;;;;;;;8.55;87.79;103028.53;5016377;28;20061;-62
2024/02/02 10:33:57;;;;;;;16.65;10.85;;;;;;;8.60;86.42;103023.13;5037567;28;20448;-65
2024/02/02 10:36:31;;;;;;;15.23;10.35;;;;;;;8.52;84.89;103026.28;5018846;28;20038;-61
2024/02/02 10:39:50;;;;;;;14.27;9.40;;;;;;;8.62;85.26;103022.91;5034671;28;20508;-61
2024/02/02 10:42:27;;;;;;;19.83;9.73;;;;;;;8.60;84.45;103020.41;5010624;28;20133;-65
2024/02/02 10:45:20;;;;;;;15.10;9.90;;;;;;;8.81;84.80;103025.22;5030534;28;20041;-61
2024/02/02 10:48:05;;;;;;;14.95;9.23;;;;;;;8.55;85.36;103017.53;5017552;28;20457;-62
2024/02/02 10:50:45;;;;;;;15.52;10.10;;;;;;;8.85;84.90;103006.31;5029787;28;20060;-61
2024/02/02 10:53:36;;;;;;;14.40;9.90;;;;;;;8.83;84.38;103008.47;5034846;28;20041;-60
2024/02/02 10:56:32;;;;;;;13.57;7.97;;;;;;;8.84;84.16;103005.47;5021576;28;20058;-60
2024/02/02 10:59:25;;;;;;;14.73;8.00;;;;;;;8.83;83.56;103014.81;5035749;28;20056;-61
2024/02/02 11:02:10;;;;;;;11.77;8.18;;;;;;;8.86;82.67;103008.81;5033784;28;20048;-61
2024/02/02 11:04:40;;;;;;;12.50;8.18;;;;;;;8.77;83.49;103015.78;5006300;28;20056;-61
2024/02/02 11:07:14;;;;;;;11.48;8.23;;;;;;;8.76;83.52;103019.63;5032602;28;20892;-62
2024/02/02 11:09:52;;;;;;;14.43;8.02;;;;;;;8.47;83.45;103020.66;5050933;28;20037;-61
2024/02/02 11:12:57;;;;;;;11.85;7.97;;;;;;;8.71;84.44;103019.53;5041380;28;20045;-62
2024/02/02 11:15:47;;;;;;;14.57;8.10;;;;;;;8.71;83.68;103016.78;5020002;28;20060;-61
2024/02/02 11:18:38;;;;;;;;;;;;;;;8.89;83.30;103013.81;5017824;28;20061;-61
2024/02/02 11:21:42;;;;;;;15.45;10.25;;;;;;;8.68;82.95;103010.94;5041208;28;19930;-62
2024/02/02 11:24:21;;;;;;;14.65;9.27;;;;;;;8.53;84.29;103019.69;5044241;28;20839;-62
2024/02/02 11:26:51;;;;;;;15.65;8.43;;;;;;;8.45;84.96;103011.84;5023912;28;20062;-61
2024/02/02 11:29:34;;;;;;;13.40;9.00;;;;;;;8.59;85.67;103004.16;5011730;28;20053;-61
2024/02/02 11:32:21;;;;;;;12.20;8.25;;;;;;;8.67;84.72;103003.75;5025444;28;20049;-62
2024/02/02 11:34:55;;;;;;;15.43;10.55;;;;;;;8.74;84.42;102997.03;5025807;28;20755;-62
2024/02/02 11:37:30;;;;;;;18.17;12.65;;;;;;;8.85;85.37;103004.41;5012270;28;20098;-61
2024/02/02 11:40:00;;;;;;;15.45;10.10;;;;;;;9.02;84.81;102998.94;5020372;28;20674;-60
2024/02/02 11:42:28;;;;;;;15.90;8.95;;;;;;;9.04;83.16;102994.03;5036345;28;20053;-60
2024/02/02 11:44:57;;;;;;;12.80;8.63;;;;;;;9.02;82.51;102987.94;5037198;28;20053;-61
2024/02/02 11:47:25;;;;;;;22.47;14.13;;;;;;;9.27;81.47;102980.13;5043820;28;20050;-63